createdAt,value
2016-06-21T00:00:57.576Z,1013.9
2016-06-21T00:01:57.594Z,1013.9
2016-06-21T00:02:57.555Z,1013.9
2016-06-21T00:03:57.541Z,1013.87
2016-06-21T00:04:57.519Z,1013.86
2016-06-21T00:05:57.510Z,1013.89
2016-06-21T00:06:57.495Z,1013.88
2016-06-21T00:07:57.482Z,1013.89
2016-06-21T00:08:57.471Z,1013.85
2016-06-21T00:09:57.457Z,1013.91
2016-06-21T00:10:57.456Z,1013.91
2016-06-21T00:11:57.431Z,1013.93
2016-06-21T00:12:57.420Z,1013.89
2016-06-21T00:13:57.406Z,1013.94
2016-06-21T00:14:57.400Z,1013.87
2016-06-21T00:15:57.384Z,1013.86
2016-06-21T00:16:57.373Z,1013.84
2016-06-21T00:17:57.357Z,1013.82
2016-06-21T00:18:57.347Z,1013.81
2016-06-21T00:19:57.327Z,1013.76
2016-06-21T00:20:57.317Z,1013.79
2016-06-21T00:21:57.329Z,1013.76
2016-06-21T00:22:57.287Z,1013.8
2016-06-21T00:23:57.283Z,1013.79
2016-06-21T00:24:57.265Z,1013.76
2016-06-21T00:25:57.245Z,1013.76
2016-06-21T00:26:57.242Z,1013.75
2016-06-21T00:27:57.225Z,1013.76
2016-06-21T00:28:57.210Z,1013.75
2016-06-21T00:29:57.200Z,1013.77
2016-06-21T00:30:57.183Z,1013.78
2016-06-21T00:31:57.171Z,1013.84
2016-06-21T00:32:57.159Z,1013.81
2016-06-21T00:33:57.146Z,1013.78
2016-06-21T00:34:57.128Z,1013.75
2016-06-21T00:35:57.119Z,1013.74
2016-06-21T00:36:57.104Z,1013.75
2016-06-21T00:37:57.093Z,1013.75
2016-06-21T00:38:57.078Z,1013.75
2016-06-21T00:39:57.067Z,1013.71
2016-06-21T00:40:57.053Z,1013.74
2016-06-21T00:41:57.038Z,1013.72
2016-06-21T00:42:57.027Z,1013.7
2016-06-21T00:43:57.010Z,1013.69
2016-06-21T00:44:57.002Z,1013.66
2016-06-21T00:45:56.988Z,1013.66
2016-06-21T00:46:56.974Z,1013.65
2016-06-21T00:47:56.960Z,1013.64
2016-06-21T00:48:56.951Z,1013.63
2016-06-21T00:49:56.931Z,1013.62
2016-06-21T00:50:56.922Z,1013.63
2016-06-21T00:51:56.906Z,1013.58
2016-06-21T00:52:56.898Z,1013.59
2016-06-21T00:53:56.882Z,1013.58
2016-06-21T00:54:56.864Z,1013.58
2016-06-21T00:55:56.854Z,1013.6
2016-06-21T00:56:56.838Z,1013.57
2016-06-21T00:57:56.834Z,1013.58
2016-06-21T00:58:56.810Z,1013.51
2016-06-21T00:59:56.804Z,1013.53
2016-06-21T01:00:56.784Z,1013.51
2016-06-21T01:01:56.775Z,1013.52
2016-06-21T01:02:56.761Z,1013.49
2016-06-21T01:03:56.747Z,1013.49
2016-06-21T01:04:56.734Z,1013.49
2016-06-21T01:05:56.722Z,1013.52
2016-06-21T01:06:56.707Z,1013.53
2016-06-21T01:07:56.708Z,1013.49
2016-06-21T01:08:56.682Z,1013.51
2016-06-21T01:09:56.674Z,1013.49
2016-06-21T01:10:56.658Z,1013.49
2016-06-21T01:11:56.646Z,1013.49
2016-06-21T01:12:56.630Z,1013.45
2016-06-21T01:13:56.612Z,1013.44
2016-06-21T01:14:56.602Z,1013.43
2016-06-21T01:15:56.593Z,1013.39
2016-06-21T01:16:56.581Z,1013.38
2016-06-21T01:17:56.559Z,1013.38
2016-06-21T01:18:56.553Z,1013.41
2016-06-21T01:19:56.539Z,1013.35
2016-06-21T01:20:56.521Z,1013.3
2016-06-21T01:21:56.513Z,1013.3
2016-06-21T01:22:56.502Z,1013.3
2016-06-21T01:23:56.485Z,1013.29
2016-06-21T01:24:56.470Z,1013.27
2016-06-21T01:25:56.458Z,1013.27
2016-06-21T01:26:56.449Z,1013.24
2016-06-21T01:27:56.432Z,1013.25
2016-06-21T01:28:56.416Z,1013.2
2016-06-21T01:29:56.401Z,1013.18
2016-06-21T01:30:56.390Z,1013.16
2016-06-21T01:31:56.375Z,1013.14
2016-06-21T01:32:56.363Z,1013.13
2016-06-21T01:33:56.347Z,1013.14
2016-06-21T01:34:56.336Z,1013.11
2016-06-21T01:35:56.327Z,1013.15
2016-06-21T01:36:56.318Z,1013.14
2016-06-21T01:37:56.295Z,1013.15
2016-06-21T01:38:56.285Z,1013.14
2016-06-21T01:39:56.276Z,1013.12
2016-06-21T01:40:56.258Z,1013.08
2016-06-21T01:41:56.245Z,1013.1
2016-06-21T01:42:56.234Z,1013.05
2016-06-21T01:43:56.219Z,1013.06
2016-06-21T01:44:56.202Z,1013.03
2016-06-21T01:45:56.187Z,1013.07
2016-06-21T01:46:56.175Z,1013.06
2016-06-21T01:47:56.171Z,1013.05
2016-06-21T01:48:56.152Z,1013.03
2016-06-21T01:49:56.135Z,1013.04
2016-06-21T01:50:56.125Z,1013.01
2016-06-21T01:51:56.105Z,1012.99
2016-06-21T01:52:56.096Z,1012.98
2016-06-21T01:53:56.085Z,1013.03
2016-06-21T01:54:56.072Z,1012.99
2016-06-21T01:55:56.056Z,1012.96
2016-06-21T01:56:56.043Z,1012.98
2016-06-21T01:57:56.031Z,1012.99
2016-06-21T01:58:56.014Z,1012.98
2016-06-21T01:59:56.007Z,1012.98
2016-06-21T02:00:55.991Z,1012.97
2016-06-21T02:01:55.985Z,1012.98
2016-06-21T02:02:55.964Z,1013
2016-06-21T02:03:55.951Z,1012.96
2016-06-21T02:04:55.937Z,1012.96
2016-06-21T02:05:55.923Z,1012.95
2016-06-21T02:06:55.908Z,1012.92
2016-06-21T02:07:55.893Z,1012.89
2016-06-21T02:08:55.883Z,1012.87
2016-06-21T02:09:55.877Z,1012.9
2016-06-21T02:10:55.859Z,1012.85
2016-06-21T02:11:55.843Z,1012.86
2016-06-21T02:12:55.833Z,1012.85
2016-06-21T02:13:55.811Z,1012.86
2016-06-21T02:14:55.804Z,1012.85
2016-06-21T02:15:55.791Z,1012.84
2016-06-21T02:16:55.774Z,1012.86
2016-06-21T02:17:55.766Z,1012.83
2016-06-21T02:18:55.772Z,1012.86
2016-06-21T02:19:55.738Z,1012.86
2016-06-21T02:20:55.726Z,1012.88
2016-06-21T02:21:55.712Z,1012.84
2016-06-21T02:22:55.694Z,1012.87
2016-06-21T02:23:55.683Z,1012.85
2016-06-21T02:24:55.672Z,1012.84
2016-06-21T02:25:55.652Z,1012.86
2016-06-21T02:26:55.647Z,1012.87
2016-06-21T02:27:55.633Z,1012.84
2016-06-21T02:28:55.617Z,1012.85
2016-06-21T02:29:55.603Z,1012.85
2016-06-21T02:30:55.592Z,1012.86
2016-06-21T02:31:55.575Z,1012.82
2016-06-21T02:32:55.558Z,1012.83
2016-06-21T02:33:55.553Z,1012.77
2016-06-21T02:34:55.533Z,1012.74
2016-06-21T02:35:55.520Z,1012.76
2016-06-21T02:36:55.510Z,1012.77
2016-06-21T02:37:55.496Z,1012.75
2016-06-21T02:38:55.487Z,1012.73
2016-06-21T02:39:55.469Z,1012.76
2016-06-21T02:40:55.459Z,1012.73
2016-06-21T02:41:55.441Z,1012.71
2016-06-21T02:42:55.438Z,1012.7
2016-06-21T02:43:55.420Z,1012.68
2016-06-21T02:44:55.405Z,1012.7
2016-06-21T02:45:55.387Z,1012.71
2016-06-21T02:46:55.378Z,1012.69
2016-06-21T02:47:55.364Z,1012.67
2016-06-21T02:48:55.361Z,1012.69
2016-06-21T02:49:55.335Z,1012.68
2016-06-21T02:50:55.331Z,1012.64
2016-06-21T02:51:55.313Z,1012.64
2016-06-21T02:52:55.297Z,1012.66
2016-06-21T02:53:55.283Z,1012.65
2016-06-21T02:54:55.271Z,1012.59
2016-06-21T02:55:55.258Z,1012.58
2016-06-21T02:56:55.246Z,1012.54
2016-06-21T02:57:55.231Z,1012.55
2016-06-21T02:58:55.214Z,1012.58
2016-06-21T02:59:55.202Z,1012.58
2016-06-21T03:00:55.191Z,1012.61
2016-06-21T03:01:55.178Z,1012.57
2016-06-21T03:02:55.167Z,1012.6
2016-06-21T03:03:55.144Z,1012.59
2016-06-21T03:04:55.137Z,1012.53
2016-06-21T03:05:55.119Z,1012.58
2016-06-21T03:06:55.113Z,1012.54
2016-06-21T03:07:55.097Z,1012.51
2016-06-21T03:08:55.086Z,1012.5
2016-06-21T03:09:55.073Z,1012.52
2016-06-21T03:10:55.058Z,1012.51
2016-06-21T03:11:55.047Z,1012.5
2016-06-21T03:12:55.032Z,1012.47
2016-06-21T03:13:55.023Z,1012.49
2016-06-21T03:14:55.006Z,1012.47
2016-06-21T03:15:54.998Z,1012.46
2016-06-21T03:16:54.975Z,1012.48
2016-06-21T03:17:54.968Z,1012.45
2016-06-21T03:18:54.951Z,1012.46
2016-06-21T03:19:54.943Z,1012.46
2016-06-21T03:20:54.926Z,1012.42
2016-06-21T03:21:54.913Z,1012.42
2016-06-21T03:22:54.902Z,1012.43
2016-06-21T03:23:54.882Z,1012.42
2016-06-21T03:24:54.874Z,1012.44
2016-06-21T03:25:54.858Z,1012.43
2016-06-21T03:26:54.841Z,1012.42
2016-06-21T03:27:54.826Z,1012.41
2016-06-21T03:28:54.822Z,1012.4
2016-06-21T03:29:54.809Z,1012.44
2016-06-21T03:30:54.789Z,1012.41
2016-06-21T03:31:54.776Z,1012.42
2016-06-21T03:32:54.761Z,1012.43
2016-06-21T03:33:54.752Z,1012.45
2016-06-21T03:34:54.737Z,1012.42
2016-06-21T03:35:54.722Z,1012.42
2016-06-21T03:36:54.710Z,1012.43
2016-06-21T03:37:54.694Z,1012.43
2016-06-21T03:38:54.687Z,1012.4
2016-06-21T03:39:54.666Z,1012.38
2016-06-21T03:40:54.657Z,1012.39
2016-06-21T03:41:54.642Z,1012.37
2016-06-21T03:42:54.627Z,1012.39
2016-06-21T03:43:54.616Z,1012.38
2016-06-21T03:44:54.599Z,1012.39
2016-06-21T03:45:54.598Z,1012.38
2016-06-21T03:46:54.575Z,1012.37
2016-06-21T03:47:54.567Z,1012.37
2016-06-21T03:48:54.544Z,1012.38
2016-06-21T03:49:54.533Z,1012.38
2016-06-21T03:50:54.523Z,1012.37
2016-06-21T03:51:54.506Z,1012.37
2016-06-21T03:52:54.492Z,1012.37
2016-06-21T03:53:54.476Z,1012.41
2016-06-21T03:54:54.471Z,1012.39
2016-06-21T03:55:54.458Z,1012.4
2016-06-21T03:56:54.438Z,1012.37
2016-06-21T03:57:54.428Z,1012.37
2016-06-21T03:58:54.413Z,1012.4
2016-06-21T03:59:54.406Z,1012.42
2016-06-21T04:00:54.388Z,1012.36
2016-06-21T04:01:54.375Z,1012.36
2016-06-21T04:02:54.361Z,1012.35
2016-06-21T04:03:54.350Z,1012.37
2016-06-21T04:04:54.335Z,1012.33
2016-06-21T04:05:54.316Z,1012.33
2016-06-21T04:06:54.310Z,1012.36
2016-06-21T04:07:54.294Z,1012.35
2016-06-21T04:08:54.280Z,1012.37
2016-06-21T04:09:54.271Z,1012.37
2016-06-21T04:10:54.254Z,1012.36
2016-06-21T04:11:54.239Z,1012.31
2016-06-21T04:12:54.229Z,1012.33
2016-06-21T04:13:54.214Z,1012.3
2016-06-21T04:14:54.198Z,1012.32
2016-06-21T04:15:54.183Z,1012.33
2016-06-21T04:16:54.172Z,1012.32
2016-06-21T04:17:54.157Z,1012.34
2016-06-21T04:18:54.143Z,1012.31
2016-06-21T04:19:54.135Z,1012.3
2016-06-21T04:20:54.125Z,1012.29
2016-06-21T04:21:54.105Z,1012.3
2016-06-21T04:22:54.091Z,1012.28
2016-06-21T04:23:54.076Z,1012.23
2016-06-21T04:24:54.065Z,1012.22
2016-06-21T04:25:54.050Z,1012.22
2016-06-21T04:26:54.039Z,1012.24
2016-06-21T04:27:54.023Z,1012.23
2016-06-21T04:28:54.014Z,1012.23
2016-06-21T04:29:54.002Z,1012.19
2016-06-21T04:30:53.981Z,1012.23
2016-06-21T04:31:53.970Z,1012.24
2016-06-21T04:32:53.954Z,1012.2
2016-06-21T04:33:53.948Z,1012.24
2016-06-21T04:34:53.929Z,1012.21
2016-06-21T04:35:53.923Z,1012.24
2016-06-21T04:36:53.902Z,1012.23
2016-06-21T04:37:53.895Z,1012.21
2016-06-21T04:38:53.877Z,1012.24
2016-06-21T04:39:53.863Z,1012.25
2016-06-21T04:40:53.850Z,1012.23
2016-06-21T04:41:53.838Z,1012.22
2016-06-21T04:42:53.823Z,1012.23
2016-06-21T04:43:53.809Z,1012.24
2016-06-21T04:44:53.795Z,1012.21
2016-06-21T04:45:53.781Z,1012.24
2016-06-21T04:46:53.769Z,1012.28
2016-06-21T04:47:53.756Z,1012.3
2016-06-21T04:48:53.742Z,1012.26
2016-06-21T04:49:53.731Z,1012.26
2016-06-21T04:50:53.715Z,1012.26
2016-06-21T04:51:53.701Z,1012.3
2016-06-21T04:52:53.690Z,1012.31
2016-06-21T04:53:53.675Z,1012.36
2016-06-21T04:54:53.661Z,1012.35
2016-06-21T04:55:53.642Z,1012.33
2016-06-21T04:56:53.637Z,1012.35
2016-06-21T04:57:53.620Z,1012.39
2016-06-21T04:58:53.610Z,1012.42
2016-06-21T04:59:53.599Z,1012.41
2016-06-21T05:00:53.578Z,1012.4
2016-06-21T05:01:53.567Z,1012.4
2016-06-21T05:02:53.553Z,1012.43
2016-06-21T05:03:53.541Z,1012.43
2016-06-21T05:04:53.523Z,1012.43
2016-06-21T05:05:53.512Z,1012.46
2016-06-21T05:06:53.500Z,1012.45
2016-06-21T05:07:53.482Z,1012.45
2016-06-21T05:08:53.473Z,1012.43
2016-06-21T05:09:53.458Z,1012.47
2016-06-21T05:10:53.452Z,1012.46
2016-06-21T05:11:53.428Z,1012.47
2016-06-21T05:12:53.419Z,1012.46
2016-06-21T05:13:53.404Z,1012.47
2016-06-21T05:14:53.393Z,1012.48
2016-06-21T05:15:53.379Z,1012.48
2016-06-21T05:16:53.368Z,1012.47
2016-06-21T05:17:53.353Z,1012.49
2016-06-21T05:18:53.335Z,1012.5
2016-06-21T05:19:53.320Z,1012.51
2016-06-21T05:20:53.312Z,1012.48
2016-06-21T05:21:53.294Z,1012.48
2016-06-21T05:22:53.282Z,1012.47
2016-06-21T05:23:53.266Z,1012.5
2016-06-21T05:24:53.255Z,1012.49
2016-06-21T05:25:53.241Z,1012.51
2016-06-21T05:26:53.228Z,1012.54
2016-06-21T05:27:53.214Z,1012.59
2016-06-21T05:28:53.199Z,1012.61
2016-06-21T05:29:53.209Z,1012.6
2016-06-21T05:30:53.167Z,1012.62
2016-06-21T05:31:53.162Z,1012.63
2016-06-21T05:32:53.147Z,1012.65
2016-06-21T05:33:53.128Z,1012.62
2016-06-21T05:34:53.118Z,1012.62
2016-06-21T05:35:53.105Z,1012.62
2016-06-21T05:36:53.091Z,1012.63
2016-06-21T05:37:53.077Z,1012.66
2016-06-21T05:38:53.068Z,1012.66
2016-06-21T05:39:53.049Z,1012.66
2016-06-21T05:40:53.032Z,1012.64
2016-06-21T05:41:53.023Z,1012.65
2016-06-21T05:42:53.008Z,1012.61
2016-06-21T05:43:52.990Z,1012.62
2016-06-21T05:44:52.984Z,1012.65
2016-06-21T05:45:52.966Z,1012.68
2016-06-21T05:46:52.951Z,1012.66
2016-06-21T05:47:52.941Z,1012.7
2016-06-21T05:48:52.924Z,1012.67
2016-06-21T05:49:52.914Z,1012.63
2016-06-21T05:50:52.900Z,1012.66
2016-06-21T05:51:52.889Z,1012.66
2016-06-21T05:52:52.870Z,1012.65
2016-06-21T05:53:52.856Z,1012.63
2016-06-21T05:54:52.842Z,1012.65
2016-06-21T05:55:52.823Z,1012.63
2016-06-21T05:56:52.815Z,1012.63
2016-06-21T05:57:52.800Z,1012.69
2016-06-21T05:58:52.787Z,1012.64
2016-06-21T05:59:52.772Z,1012.66
2016-06-21T06:00:52.756Z,1012.65
2016-06-21T06:01:52.743Z,1012.66
2016-06-21T06:02:52.733Z,1012.68
2016-06-21T06:03:52.719Z,1012.7
2016-06-21T06:04:52.702Z,1012.68
2016-06-21T06:05:52.693Z,1012.73
2016-06-21T06:06:52.675Z,1012.7
2016-06-21T06:07:52.670Z,1012.74
2016-06-21T06:08:52.649Z,1012.78
2016-06-21T06:09:52.634Z,1012.8
2016-06-21T06:10:52.620Z,1012.78
2016-06-21T06:11:52.604Z,1012.78
2016-06-21T06:12:52.594Z,1012.79
2016-06-21T06:13:52.581Z,1012.78
2016-06-21T06:14:52.561Z,1012.81
2016-06-21T06:15:52.550Z,1012.78
2016-06-21T06:16:52.536Z,1012.78
2016-06-21T06:17:52.523Z,1012.85
2016-06-21T06:18:52.514Z,1012.9
2016-06-21T06:19:52.498Z,1012.92
2016-06-21T06:20:52.484Z,1012.93
2016-06-21T06:21:52.471Z,1012.98
2016-06-21T06:22:52.455Z,1012.97
2016-06-21T06:23:52.446Z,1012.97
2016-06-21T06:24:52.426Z,1012.95
2016-06-21T06:25:52.413Z,1013.01
2016-06-21T06:26:52.399Z,1013.04
2016-06-21T06:27:52.400Z,1012.97
2016-06-21T06:28:52.372Z,1013
2016-06-21T06:29:52.355Z,1013.03
2016-06-21T06:30:52.345Z,1013.02
2016-06-21T06:31:52.332Z,1013
2016-06-21T06:32:52.319Z,1013
2016-06-21T06:33:52.304Z,1013.04
2016-06-21T06:34:52.293Z,1013
2016-06-21T06:35:52.277Z,1012.98
2016-06-21T06:36:52.260Z,1012.99
2016-06-21T06:37:52.252Z,1012.95
2016-06-21T06:38:52.238Z,1012.95
2016-06-21T06:39:52.219Z,1012.94
2016-06-21T06:40:52.214Z,1012.94
2016-06-21T06:41:52.190Z,1012.95
2016-06-21T06:42:52.179Z,1012.99
2016-06-21T06:43:52.167Z,1012.97
2016-06-21T06:44:52.159Z,1012.9
2016-06-21T06:45:52.139Z,1012.86
2016-06-21T06:46:52.130Z,1012.85
2016-06-21T06:47:52.113Z,1012.84
2016-06-21T06:48:52.095Z,1012.83
2016-06-21T06:49:52.082Z,1012.83
2016-06-21T06:50:52.068Z,1012.78
2016-06-21T06:51:52.058Z,1012.84
2016-06-21T06:52:52.047Z,1012.82
2016-06-21T06:53:52.035Z,1012.78
2016-06-21T06:54:52.016Z,1012.77
2016-06-21T06:55:51.999Z,1012.77
2016-06-21T06:56:51.989Z,1012.76
2016-06-21T06:57:51.974Z,1012.78
2016-06-21T06:58:51.961Z,1012.8
2016-06-21T06:59:51.946Z,1012.85
2016-06-21T07:00:51.930Z,1012.86
2016-06-21T07:01:51.920Z,1012.85
2016-06-21T07:02:51.909Z,1012.9
2016-06-21T07:03:51.893Z,1012.9
2016-06-21T07:04:51.879Z,1012.91
2016-06-21T07:05:51.881Z,1012.92
2016-06-21T07:06:51.851Z,1012.96
2016-06-21T07:07:51.860Z,1012.95
2016-06-21T07:08:51.822Z,1012.95
2016-06-21T07:09:51.811Z,1012.93
2016-06-21T07:10:51.796Z,1012.94
2016-06-21T07:11:51.785Z,1012.98
2016-06-21T07:12:51.770Z,1013.01
2016-06-21T07:13:51.753Z,1013.05
2016-06-21T07:14:51.740Z,1013
2016-06-21T07:15:51.726Z,1013.06
2016-06-21T07:16:51.711Z,1013.06
2016-06-21T07:17:51.699Z,1013.05
2016-06-21T07:18:51.686Z,1013.06
2016-06-21T07:19:51.675Z,1013.07
2016-06-21T07:20:51.658Z,1013.09
2016-06-21T07:21:51.647Z,1013.03
2016-06-21T07:22:51.630Z,1013.07
2016-06-21T07:23:51.762Z,1013.06
2016-06-21T07:24:51.604Z,1013.07
2016-06-21T07:25:51.587Z,1013.06
2016-06-21T07:26:51.575Z,1013.12
2016-06-21T07:27:51.562Z,1013.07
2016-06-21T07:28:51.651Z,1013.06
2016-06-21T07:29:51.542Z,1013.09
2016-06-21T07:30:51.531Z,1013.09
2016-06-21T07:31:51.507Z,1013.05
2016-06-21T07:32:51.489Z,1013.09
2016-06-21T07:33:51.479Z,1013.09
2016-06-21T07:34:51.467Z,1013.12
2016-06-21T07:35:51.455Z,1013.12
2016-06-21T07:36:51.446Z,1013.16
2016-06-21T07:37:51.425Z,1013.18
2016-06-21T07:38:51.412Z,1013.11
2016-06-21T07:39:51.395Z,1013.16
2016-06-21T07:40:51.387Z,1013.1
2016-06-21T07:41:51.377Z,1013.12
2016-06-21T07:43:51.351Z,1013.12
2016-06-21T07:44:51.335Z,1013.09
2016-06-21T07:45:51.326Z,1013.11
2016-06-21T07:46:51.306Z,1013.12
2016-06-21T07:47:51.286Z,1013.15
2016-06-21T07:48:51.275Z,1013.11
2016-06-21T07:49:51.263Z,1013.1
2016-06-21T07:50:51.254Z,1013.13
2016-06-21T07:51:51.231Z,1013.15
2016-06-21T07:52:51.222Z,1013.14
2016-06-21T07:53:51.209Z,1013.22
2016-06-21T07:54:51.198Z,1013.17
2016-06-21T07:55:51.181Z,1013.16
2016-06-21T07:56:51.174Z,1013.14
2016-06-21T07:57:51.154Z,1013.11
2016-06-21T07:58:51.147Z,1013.13
2016-06-21T07:59:51.131Z,1013.16
2016-06-21T08:00:51.110Z,1013.12
2016-06-21T08:01:51.097Z,1013.16
2016-06-21T08:02:51.092Z,1013.13
2016-06-21T08:03:51.078Z,1013.16
2016-06-21T08:04:51.064Z,1013.16
2016-06-21T08:05:51.051Z,1013.14
2016-06-21T08:06:51.051Z,1013.11
2016-06-21T08:07:51.019Z,1013.11
2016-06-21T08:08:51.007Z,1013.09
2016-06-21T08:09:50.994Z,1013.11
2016-06-21T08:10:50.986Z,1013.14
2016-06-21T08:11:50.965Z,1013.17
2016-06-21T08:12:50.955Z,1013.15
2016-06-21T08:13:50.939Z,1013.19
2016-06-21T08:14:50.955Z,1013.16
2016-06-21T08:15:50.914Z,1013.12
2016-06-21T08:16:50.903Z,1013.16
2016-06-21T08:17:50.901Z,1013.16
2016-06-21T08:18:50.874Z,1013.18
2016-06-21T08:19:50.864Z,1013.21
2016-06-21T08:20:50.851Z,1013.23
2016-06-21T08:21:50.843Z,1013.23
2016-06-21T08:22:50.820Z,1013.19
2016-06-21T08:23:50.818Z,1013.22
2016-06-21T08:24:50.804Z,1013.23
2016-06-21T08:25:50.800Z,1013.22
2016-06-21T08:26:50.770Z,1013.25
2016-06-21T08:27:50.769Z,1013.2
2016-06-21T08:28:50.748Z,1013.23
2016-06-21T08:29:50.733Z,1013.2
2016-06-21T08:30:50.723Z,1013.17
2016-06-21T08:31:50.709Z,1013.18
2016-06-21T08:32:50.697Z,1013.17
2016-06-21T08:33:50.685Z,1013.22
2016-06-21T08:34:50.674Z,1013.24
2016-06-21T08:35:50.659Z,1013.2
2016-06-21T08:36:50.644Z,1013.17
2016-06-21T08:37:50.630Z,1013.14
2016-06-21T08:38:50.615Z,1013.12
2016-06-21T08:39:50.608Z,1013.17
2016-06-21T08:40:50.589Z,1013.19
2016-06-21T08:41:50.579Z,1013.16
2016-06-21T08:42:50.565Z,1013.25
2016-06-21T08:43:50.559Z,1013.19
2016-06-21T08:44:50.560Z,1013.17
2016-06-21T08:45:50.530Z,1013.14
2016-06-21T08:46:50.516Z,1013.15
2016-06-21T08:47:50.506Z,1013.17
2016-06-21T08:48:50.497Z,1013.22
2016-06-21T08:49:50.478Z,1013.2
2016-06-21T08:50:50.493Z,1013.15
2016-06-21T08:51:50.453Z,1013.12
2016-06-21T08:52:50.439Z,1013.14
2016-06-21T08:53:50.427Z,1013.15
2016-06-21T08:54:50.419Z,1013.18
2016-06-21T08:55:50.404Z,1013.23
2016-06-21T08:56:50.394Z,1013.21
2016-06-21T08:57:50.381Z,1013.22
2016-06-21T08:58:50.358Z,1013.2
2016-06-21T08:59:50.363Z,1013.2
2016-06-21T09:00:50.449Z,1013.21
2016-06-21T09:01:50.327Z,1013.23
2016-06-21T09:02:50.318Z,1013.22
2016-06-21T09:03:50.304Z,1013.21
2016-06-21T09:04:50.290Z,1013.19
2016-06-21T09:05:50.277Z,1013.18
2016-06-21T09:06:50.272Z,1013.21
2016-06-21T09:07:50.302Z,1013.21
2016-06-21T09:08:50.276Z,1013.23
2016-06-21T09:09:50.230Z,1013.26
2016-06-21T09:10:50.216Z,1013.21
2016-06-21T09:11:50.219Z,1013.23
2016-06-21T09:12:50.189Z,1013.22
2016-06-21T09:13:50.174Z,1013.23
2016-06-21T09:14:50.171Z,1013.28
2016-06-21T09:15:50.155Z,1013.29
2016-06-21T09:16:50.145Z,1013.32
2016-06-21T09:17:50.124Z,1013.3
2016-06-21T09:18:50.117Z,1013.3
2016-06-21T09:19:50.358Z,1013.28
2016-06-21T09:20:50.090Z,1013.27
2016-06-21T09:21:50.078Z,1013.26
2016-06-21T09:22:50.114Z,1013.24
2016-06-21T09:23:50.055Z,1013.27
2016-06-21T09:24:50.047Z,1013.27
2016-06-21T09:25:50.034Z,1013.23
2016-06-21T09:26:50.022Z,1013.24
2016-06-21T09:27:50.012Z,1013.23
2016-06-21T09:28:50.024Z,1013.27
2016-06-21T09:29:50.072Z,1013.34
2016-06-21T09:30:49.972Z,1013.29
2016-06-21T09:31:49.970Z,1013.29
2016-06-21T09:32:49.963Z,1013.33
2016-06-21T09:33:49.937Z,1013.33
2016-06-21T09:34:49.919Z,1013.36
2016-06-21T09:35:49.907Z,1013.34
2016-06-21T09:36:49.921Z,1013.36
2016-06-21T09:37:49.891Z,1013.39
2016-06-21T09:38:49.874Z,1013.38
2016-06-21T09:39:49.864Z,1013.38
2016-06-21T09:40:49.858Z,1013.39
2016-06-21T09:41:49.837Z,1013.41
2016-06-21T09:42:49.831Z,1013.44
2016-06-21T09:43:49.813Z,1013.44
2016-06-21T09:44:49.809Z,1013.46
2016-06-21T09:45:49.792Z,1013.43
2016-06-21T09:46:49.777Z,1013.44
2016-06-21T09:47:49.766Z,1013.45
2016-06-21T09:48:49.757Z,1013.42
2016-06-21T09:49:49.754Z,1013.4
2016-06-21T09:50:49.734Z,1013.39
2016-06-21T09:51:49.720Z,1013.46
2016-06-21T09:52:49.948Z,1013.47
2016-06-21T09:53:49.700Z,1013.49
2016-06-21T09:54:49.701Z,1013.43
2016-06-21T09:55:49.672Z,1013.44
2016-06-21T09:56:49.686Z,1013.45
2016-06-21T09:57:50.006Z,1013.43
2016-06-21T09:58:50.022Z,1013.42
2016-06-21T09:59:49.631Z,1013.47
2016-06-21T10:00:49.662Z,1013.45
2016-06-21T10:01:49.676Z,1013.39
2016-06-21T10:02:49.592Z,1013.39
2016-06-21T10:03:49.580Z,1013.38
2016-06-21T10:04:49.568Z,1013.45
2016-06-21T10:05:49.554Z,1013.53
2016-06-21T10:06:49.543Z,1013.54
2016-06-21T10:07:49.530Z,1013.49
2016-06-21T10:08:49.518Z,1013.49
2016-06-21T10:09:49.517Z,1013.57
2016-06-21T10:10:49.498Z,1013.56
2016-06-21T10:11:49.482Z,1013.54
2016-06-21T10:12:49.468Z,1013.53
2016-06-21T10:13:49.463Z,1013.55
2016-06-21T10:14:49.462Z,1013.57
2016-06-21T10:15:49.433Z,1013.54
2016-06-21T10:16:49.423Z,1013.53
2016-06-21T10:17:49.420Z,1013.53
2016-06-21T10:18:49.407Z,1013.6
2016-06-21T10:19:49.387Z,1013.59
2016-06-21T10:20:49.376Z,1013.61
2016-06-21T10:21:49.371Z,1013.62
2016-06-21T10:22:49.361Z,1013.59
2016-06-21T10:23:49.346Z,1013.62
2016-06-21T10:24:49.331Z,1013.59
2016-06-21T10:25:49.323Z,1013.58
2016-06-21T10:26:49.318Z,1013.65
2016-06-21T10:27:49.310Z,1013.64
2016-06-21T10:28:49.290Z,1013.69
2016-06-21T10:29:49.271Z,1013.71
2016-06-21T10:30:49.267Z,1013.66
2016-06-21T10:31:49.267Z,1013.68
2016-06-21T10:32:49.239Z,1013.7
2016-06-21T10:33:49.241Z,1013.72
2016-06-21T10:34:49.213Z,1013.71
2016-06-21T10:35:49.213Z,1013.73
2016-06-21T10:36:49.208Z,1013.69
2016-06-21T10:37:49.185Z,1013.69
2016-06-21T10:38:49.175Z,1013.74
2016-06-21T10:39:49.166Z,1013.75
2016-06-21T10:40:49.154Z,1013.72
2016-06-21T10:41:49.140Z,1013.79
2016-06-21T10:42:49.156Z,1013.71
2016-06-21T10:43:49.154Z,1013.74
2016-06-21T10:44:49.123Z,1013.7
2016-06-21T10:45:49.093Z,1013.7
2016-06-21T10:46:49.088Z,1013.71
2016-06-21T10:47:49.078Z,1013.66
2016-06-21T10:48:49.067Z,1013.63
2016-06-21T10:49:49.070Z,1013.65
2016-06-21T10:50:49.051Z,1013.61
2016-06-21T10:51:49.029Z,1013.64
2016-06-21T10:52:49.024Z,1013.67
2016-06-21T10:53:49.011Z,1013.7
2016-06-21T10:54:48.999Z,1013.63
2016-06-21T10:55:48.990Z,1013.63
2016-06-21T10:56:48.981Z,1013.6
2016-06-21T10:57:48.968Z,1013.65
2016-06-21T10:58:48.963Z,1013.57
2016-06-21T10:59:48.949Z,1013.54
2016-06-21T11:00:48.932Z,1013.62
2016-06-21T11:01:48.922Z,1013.57
2016-06-21T11:02:48.916Z,1013.6
2016-06-21T11:03:48.907Z,1013.6
2016-06-21T11:04:48.894Z,1013.66
2016-06-21T11:05:48.892Z,1013.58
2016-06-21T11:06:48.871Z,1013.55
2016-06-21T11:07:48.861Z,1013.56
2016-06-21T11:08:48.849Z,1013.57
2016-06-21T11:09:48.856Z,1013.58
2016-06-21T11:10:48.830Z,1013.53
2016-06-21T11:11:48.820Z,1013.56
2016-06-21T11:12:48.807Z,1013.51
2016-06-21T11:13:48.801Z,1013.59
2016-06-21T11:14:48.791Z,1013.54
2016-06-21T11:15:48.785Z,1013.63
2016-06-21T11:16:48.768Z,1013.57
2016-06-21T11:17:48.754Z,1013.59
2016-06-21T11:18:48.770Z,1013.6
2016-06-21T11:19:48.736Z,1013.57
2016-06-21T11:20:48.731Z,1013.55
2016-06-21T11:21:48.716Z,1013.51
2016-06-21T11:22:48.707Z,1013.45
2016-06-21T11:23:48.692Z,1013.48
2016-06-21T11:24:48.683Z,1013.44
2016-06-21T11:25:48.676Z,1013.39
2016-06-21T11:26:48.663Z,1013.44
2016-06-21T11:27:48.656Z,1013.44
2016-06-21T11:28:48.653Z,1013.39
2016-06-21T11:29:48.651Z,1013.48
2016-06-21T11:30:48.630Z,1013.43
2016-06-21T11:31:48.618Z,1013.49
2016-06-21T11:32:48.607Z,1013.49
2016-06-21T11:33:48.596Z,1013.61
2016-06-21T11:34:48.586Z,1013.68
2016-06-21T11:35:48.579Z,1013.53
2016-06-21T11:36:48.574Z,1013.55
2016-06-21T11:37:48.574Z,1013.52
2016-06-21T11:38:48.559Z,1013.46
2016-06-21T11:39:48.550Z,1013.57
2016-06-21T11:40:48.538Z,1013.71
2016-06-21T11:41:48.536Z,1013.74
2016-06-21T11:42:48.526Z,1013.71
2016-06-21T11:43:48.512Z,1013.73
2016-06-21T11:44:48.507Z,1013.67
2016-06-21T11:45:48.508Z,1013.68
2016-06-21T11:46:48.514Z,1013.66
2016-06-21T11:47:48.496Z,1013.67
2016-06-21T11:48:48.491Z,1013.68
2016-06-21T11:49:48.488Z,1013.6
2016-06-21T11:50:48.482Z,1013.6
2016-06-21T11:51:48.479Z,1013.65
2016-06-21T11:52:48.473Z,1013.55
2016-06-21T11:53:48.475Z,1013.54
2016-06-21T11:54:48.467Z,1013.51
2016-06-21T11:55:48.466Z,1013.55
2016-06-21T11:56:48.466Z,1013.56
2016-06-21T11:57:48.459Z,1013.47
2016-06-21T11:58:48.459Z,1013.5
2016-06-21T11:59:48.463Z,1013.52
2016-06-21T12:00:48.457Z,1013.52
2016-06-21T12:01:48.455Z,1013.5
2016-06-21T12:02:48.459Z,1013.52
2016-06-21T12:03:48.453Z,1013.46
2016-06-21T12:04:48.455Z,1013.42
2016-06-21T12:05:48.453Z,1013.46
2016-06-21T12:06:48.448Z,1013.43
2016-06-21T12:07:48.455Z,1013.48
2016-06-21T12:08:48.452Z,1013.49
2016-06-21T12:09:48.451Z,1013.51